Time;durP1;ratioP1;P1;durP2;ratioP2;P2;SDS_P1;SDS_P2;PMS_P1;PMS_P2;Temp;Humidity;BMP_temperature;BMP_pressure;BME280_temperature;BME280_humidity;BME280_pressure;Samples;Min_cycle;Max_cycle;Signal;HPM_P1;HPM_P2
2023/03/10 00:02:16;;;;;;;20.60;9.25;;;1.10;99.90;;;;;;5040275;28;20037;-73
2023/03/10 00:04:42;;;;;;;22.33;9.93;;;1.10;99.90;;;;;;5036277;28;20048;-71
2023/03/10 00:07:07;;;;;;;22.35;9.77;;;1.10;99.90;;;;;;5035247;28;20435;-69
2023/03/10 00:09:33;;;;;;;23.35;11.38;;;1.10;99.90;;;;;;5028483;28;20041;-73
2023/03/10 00:11:59;;;;;;;23.25;9.93;;;1.00;99.90;;;;;;5048305;28;20064;-72
2023/03/10 00:14:24;;;;;;;27.00;10.95;;;1.10;99.90;;;;;;5031329;28;20442;-71
2023/03/10 00:16:50;;;;;;;22.00;9.70;;;1.10;99.90;;;;;;5038301;28;20122;-71
2023/03/10 00:19:15;;;;;;;23.60;10.93;;;1.10;99.90;;;;;;5036707;28;20404;-70
2023/03/10 00:21:41;;;;;;;22.40;9.73;;;1.10;99.90;;;;;;5035704;28;20078;-70
2023/03/10 00:24:06;;;;;;;21.85;9.95;;;1.00;99.90;;;;;;5036269;28;20530;-71
2023/03/10 00:26:32;;;;;;;20.90;9.20;;;1.00;99.90;;;;;;5026939;28;20044;-67
2023/03/10 00:28:58;;;;;;;20.42;8.98;;;1.00;99.90;;;;;;5053595;28;20110;-69
2023/03/10 00:31:26;;;;;;;24.65;11.18;;;1.10;99.90;;;;;;5035010;28;20439;-70
2023/03/10 00:33:54;;;;;;;23.27;10.68;;;1.00;99.90;;;;;;5034050;28;20488;-71
2023/03/10 00:36:23;;;;;;;23.98;10.32;;;1.10;99.90;;;;;;5039189;28;20044;-70
2023/03/10 00:38:50;;;;;;;20.40;9.43;;;1.00;99.90;;;;;;5036852;28;20048;-70
2023/03/10 00:41:18;;;;;;;22.42;10.40;;;1.20;99.90;;;;;;5034380;28;20572;-72
2023/03/10 00:43:44;;;;;;;20.08;9.60;;;1.20;99.90;;;;;;5051880;28;20029;-71
2023/03/10 00:46:10;;;;;;;21.45;9.63;;;1.10;99.90;;;;;;5031420;28;20033;-73
2023/03/10 00:48:36;;;;;;;18.63;9.00;;;1.20;99.90;;;;;;5030982;28;20049;-70
2023/03/10 00:51:02;;;;;;;19.60;9.05;;;1.00;99.90;;;;;;5034728;28;20053;-69
2023/03/10 00:53:28;;;;;;;17.98;8.32;;;1.00;99.90;;;;;;5032115;28;20072;-71
2023/03/10 00:56:03;;;;;;;21.45;9.73;;;1.20;99.90;;;;;;5033965;28;20518;-71
2023/03/10 00:58:31;;;;;;;20.48;9.50;;;1.00;99.90;;;;;;5037664;28;20072;-70
2023/03/10 01:00:57;;;;;;;19.23;8.98;;;1.20;99.90;;;;;;5032572;28;20033;-73
2023/03/10 01:03:23;;;;;;;20.77;9.82;;;1.20;99.90;;;;;;5036154;28;20040;-72
2023/03/10 01:05:49;;;;;;;19.65;9.43;;;1.10;99.90;;;;;;5034461;28;20052;-68
2023/03/10 01:08:16;;;;;;;18.20;8.82;;;1.00;99.90;;;;;;5031173;28;20033;-70
2023/03/10 01:10:42;;;;;;;22.38;10.43;;;1.00;99.90;;;;;;5036859;28;20430;-70
2023/03/10 01:13:09;;;;;;;20.77;9.02;;;1.10;99.90;;;;;;5037239;28;20029;-73
2023/03/10 01:15:35;;;;;;;19.02;9.85;;;1.20;99.90;;;;;;5035295;28;20084;-72
2023/03/10 01:18:02;;;;;;;21.75;9.98;;;1.10;99.90;;;;;;5032299;28;20530;-71
2023/03/10 01:20:29;;;;;;;17.30;9.00;;;1.20;99.90;;;;;;5031662;28;20053;-69
2023/03/10 01:22:54;;;;;;;20.27;8.63;;;1.10;99.90;;;;;;5052388;28;20041;-71
2023/03/10 01:25:20;;;;;;;18.20;8.90;;;1.00;99.90;;;;;;5029972;28;20068;-68
2023/03/10 01:27:45;;;;;;;18.52;9.15;;;1.00;99.90;;;;;;5038127;28;20477;-68
2023/03/10 01:30:11;;;;;;;20.10;9.73;;;1.10;99.90;;;;;;5033199;28;20032;-70
2023/03/10 01:32:37;;;;;;;21.42;9.57;;;1.10;99.90;;;;;;5033843;28;20049;-69
2023/03/10 01:35:04;;;;;;;20.67;9.82;;;1.20;99.90;;;;;;5035193;28;20087;-70
2023/03/10 01:37:30;;;;;;;17.08;7.97;;;1.00;99.90;;;;;;5035354;28;20060;-70
2023/03/10 01:39:55;;;;;;;19.23;9.35;;;1.00;99.90;;;;;;5034625;28;20390;-68
2023/03/10 01:42:21;;;;;;;18.67;9.57;;;1.00;99.90;;;;;;5031980;28;20063;-68
2023/03/10 01:45:22;;;;;;;18.05;9.45;;;1.00;99.90;;;;;;5034077;28;20178;-70
2023/03/10 01:47:47;;;;;;;21.52;9.77;;;1.10;99.90;;;;;;4984162;28;20487;-69
2023/03/10 01:50:16;;;;;;;19.50;9.10;;;1.10;99.90;;;;;;5022306;28;20053;-69
2023/03/10 01:52:51;;;;;;;21.13;10.07;;;1.20;99.90;;;;;;5052004;28;20114;-68
2023/03/10 01:55:29;;;;;;;20.92;9.63;;;1.20;99.90;;;;;;5036166;28;20480;-67
2023/03/10 01:57:55;;;;;;;18.45;8.90;;;1.00;99.90;;;;;;5045728;28;20538;-69
2023/03/10 02:00:23;;;;;;;20.85;9.70;;;1.10;99.90;;;;;;5037267;28;20514;-69
2023/03/10 02:03:07;;;;;;;20.45;9.38;;;1.20;99.90;;;;;;5040701;28;20598;-70
2023/03/10 02:05:40;;;;;;;20.35;9.20;;;1.00;99.90;;;;;;5037962;28;20200;-71
2023/03/10 02:08:07;;;;;;;22.77;10.75;;;1.00;99.90;;;;;;5041594;28;20040;-71
2023/03/10 02:10:32;;;;;;;20.38;10.27;;;1.10;99.90;;;;;;5035046;28;20503;-68
2023/03/10 02:12:58;;;;;;;21.25;9.77;;;1.10;99.90;;;;;;5037730;28;20033;-71
2023/03/10 02:15:23;;;;;;;23.83;10.50;;;1.20;99.90;;;;;;5038797;28;20044;-70
2023/03/10 02:17:50;;;;;;;22.15;10.55;;;1.00;99.90;;;;;;5037614;28;20045;-70
2023/03/10 02:20:37;;;;;;;23.15;11.25;;;1.00;99.90;;;;;;5039100;28;20050;-69
2023/03/10 02:23:02;;;;;;;23.73;10.45;;;1.00;99.90;;;;;;5039365;28;20033;-69
2023/03/10 02:25:33;;;;;;;22.48;10.52;;;1.00;99.90;;;;;;5056108;28;20064;-68
2023/03/10 02:27:59;;;;;;;20.27;10.02;;;1.10;99.90;;;;;;5037662;28;20037;-69
2023/03/10 02:30:30;;;;;;;22.83;10.80;;;1.00;99.90;;;;;;5040497;28;20037;-68
2023/03/10 02:33:00;;;;;;;19.83;9.88;;;1.00;99.90;;;;;;5042110;28;20040;-66
2023/03/10 02:35:26;;;;;;;21.73;10.95;;;0.90;99.90;;;;;;5040219;28;20791;-69
2023/03/10 02:37:51;;;;;;;21.65;10.35;;;0.90;99.90;;;;;;5040303;28;20044;-69
2023/03/10 02:40:36;;;;;;;23.42;10.52;;;0.90;99.90;;;;;;5035130;28;20044;-67
2023/03/10 02:43:15;;;;;;;19.52;9.57;;;0.90;99.90;;;;;;5034268;28;20047;-69
2023/03/10 02:45:44;;;;;;;21.08;10.60;;;1.10;99.90;;;;;;5034789;28;20072;-69
2023/03/10 02:48:14;;;;;;;19.25;9.23;;;0.90;99.90;;;;;;5039782;28;20072;-68
2023/03/10 02:50:42;;;;;;;20.05;10.30;;;1.10;99.90;;;;;;5031261;28;20041;-68
2023/03/10 02:53:18;;;;;;;21.25;10.13;;;1.00;99.90;;;;;;5038591;28;20033;-67
2023/03/10 02:55:43;;;;;;;20.92;9.65;;;1.10;99.90;;;;;;5035017;28;20146;-68
2023/03/10 02:58:10;;;;;;;21.00;9.48;;;0.90;99.90;;;;;;5042304;28;20072;-69
2023/03/10 03:00:37;;;;;;;20.10;9.25;;;0.90;99.90;;;;;;5051725;28;20037;-67
2023/03/10 03:03:03;;;;;;;18.80;8.75;;;1.10;99.90;;;;;;5035410;28;20490;-68
2023/03/10 03:05:29;;;;;;;19.15;8.93;;;0.90;99.90;;;;;;5039507;28;20044;-68
2023/03/10 03:07:54;;;;;;;19.15;9.52;;;1.10;99.90;;;;;;5040120;28;20483;-68
2023/03/10 03:10:20;;;;;;;18.38;9.23;;;1.00;99.90;;;;;;5035622;28;20170;-69
2023/03/10 03:12:46;;;;;;;20.70;9.70;;;1.00;99.90;;;;;;5032079;28;20545;-68
2023/03/10 03:15:11;;;;;;;18.20;9.50;;;1.00;99.90;;;;;;5036607;28;20041;-68
2023/03/10 03:17:37;;;;;;;17.23;8.82;;;0.90;99.90;;;;;;5054258;28;20484;-68
2023/03/10 03:20:10;;;;;;;22.35;10.00;;;1.10;99.90;;;;;;5036510;28;20063;-67
2023/03/10 03:22:37;;;;;;;21.02;9.52;;;1.00;99.90;;;;;;5040933;28;20048;-68
2023/03/10 03:25:03;;;;;;;19.88;9.40;;;1.10;99.90;;;;;;5038974;28;20036;-68
2023/03/10 03:27:30;;;;;;;19.17;9.13;;;1.10;99.90;;;;;;5037317;28;20048;-68
2023/03/10 03:29:56;;;;;;;20.63;9.48;;;1.00;99.90;;;;;;5049548;28;20618;-69
2023/03/10 03:32:22;;;;;;;21.95;10.13;;;1.10;99.90;;;;;;5041084;28;20486;-68
2023/03/10 03:34:48;;;;;;;19.05;8.85;;;1.00;99.90;;;;;;5038704;28;20049;-68
2023/03/10 03:37:13;;;;;;;20.38;9.82;;;1.00;99.90;;;;;;5039123;28;20033;-67
2023/03/10 03:39:39;;;;;;;21.10;9.85;;;1.10;99.90;;;;;;5036584;28;20053;-68
2023/03/10 03:42:04;;;;;;;19.05;9.20;;;1.00;99.90;;;;;;5056324;28;20392;-67
2023/03/10 03:44:30;;;;;;;21.60;10.05;;;1.10;99.90;;;;;;5039276;28;20443;-67
2023/03/10 03:46:55;;;;;;;20.33;10.75;;;0.90;99.90;;;;;;5033381;28;20437;-66
2023/03/10 03:49:21;;;;;;;22.20;10.00;;;1.10;99.90;;;;;;5037023;28;20040;-67
2023/03/10 03:51:46;;;;;;;23.73;11.30;;;1.10;99.90;;;;;;5038167;28;20500;-67
2023/03/10 03:54:12;;;;;;;23.58;11.10;;;1.00;99.90;;;;;;5039799;28;20037;-67
2023/03/10 03:56:37;;;;;;;25.35;11.45;;;1.00;99.90;;;;;;5038255;28;20032;-67
2023/03/10 03:59:04;;;;;;;24.67;12.18;;;1.10;99.90;;;;;;5039868;28;20473;-69
2023/03/10 04:01:29;;;;;;;24.60;11.63;;;1.00;99.90;;;;;;5043092;28;20038;-67
2023/03/10 04:03:55;;;;;;;27.67;12.35;;;1.10;99.90;;;;;;5039692;28;21358;-67
2023/03/10 04:06:20;;;;;;;26.58;11.63;;;1.00;99.90;;;;;;5056705;28;20068;-67
2023/03/10 04:08:49;;;;;;;27.85;13.65;;;1.00;99.90;;;;;;5045874;28;20178;-68
2023/03/10 04:11:14;;;;;;;26.67;12.25;;;0.90;99.90;;;;;;5055992;28;20049;-67
2023/03/10 04:13:40;;;;;;;26.45;11.70;;;1.10;99.90;;;;;;5043196;28;20498;-67
2023/03/10 04:16:06;;;;;;;29.25;12.55;;;0.90;99.90;;;;;;5045482;28;20041;-68
2023/03/10 04:18:32;;;;;;;28.83;12.82;;;0.90;99.90;;;;;;5036268;28;20041;-67
2023/03/10 04:20:58;;;;;;;27.13;12.52;;;1.20;99.90;;;;;;5035510;28;20030;-66
2023/03/10 04:23:23;;;;;;;27.42;12.75;;;1.10;99.90;;;;;;5041519;28;20045;-68
2023/03/10 04:25:49;;;;;;;26.25;12.80;;;0.90;99.90;;;;;;5043505;28;20043;-66
2023/03/10 04:28:14;;;;;;;26.38;12.07;;;1.10;99.90;;;;;;5039609;28;22063;-67
2023/03/10 04:30:41;;;;;;;27.27;12.88;;;0.90;99.90;;;;;;5038223;28;20320;-67
2023/03/10 04:33:08;;;;;;;24.05;10.65;;;0.90;99.90;;;;;;5038704;28;20037;-66
2023/03/10 04:35:37;;;;;;;23.33;10.38;;;1.20;99.90;;;;;;5043290;28;20045;-66
2023/03/10 04:38:02;;;;;;;25.45;11.68;;;1.00;99.90;;;;;;5059063;28;20102;-66
2023/03/10 04:40:28;;;;;;;22.00;9.70;;;1.00;99.90;;;;;;5041183;28;20560;-68
2023/03/10 04:42:53;;;;;;;23.40;10.45;;;0.90;99.90;;;;;;5035560;28;20120;-67
2023/03/10 04:45:19;;;;;;;21.50;9.65;;;1.20;99.90;;;;;;5045224;28;20045;-67
2023/03/10 04:47:44;;;;;;;20.60;9.32;;;1.10;99.90;;;;;;5032383;28;20369;-66
2023/03/10 04:50:11;;;;;;;16.90;8.75;;;1.00;99.90;;;;;;5044113;28;20041;-67
2023/03/10 04:52:37;;;;;;;20.52;9.45;;;1.00;99.90;;;;;;5035072;28;20041;-67
2023/03/10 04:55:03;;;;;;;18.92;9.65;;;1.20;99.90;;;;;;5041847;28;20037;-67
2023/03/10 04:57:28;;;;;;;18.08;8.75;;;1.10;99.90;;;;;;5041966;28;20041;-68
2023/03/10 04:59:54;;;;;;;18.30;8.32;;;1.00;99.90;;;;;;5038227;28;20172;-67
2023/03/10 05:02:19;;;;;;;18.05;9.15;;;0.90;99.90;;;;;;5037149;28;20040;-67
2023/03/10 05:04:45;;;;;;;18.85;8.73;;;1.10;99.90;;;;;;5037635;28;20070;-68
2023/03/10 05:07:10;;;;;;;18.42;8.57;;;0.90;99.90;;;;;;5040487;28;20072;-67
2023/03/10 05:09:36;;;;;;;15.65;7.45;;;1.00;99.90;;;;;;5052996;28;20072;-67
2023/03/10 05:12:03;;;;;;;16.77;7.82;;;1.10;99.90;;;;;;5061028;28;20037;-67
2023/03/10 05:14:29;;;;;;;16.90;8.00;;;1.00;99.90;;;;;;5045095;28;20085;-68
2023/03/10 05:16:54;;;;;;;18.20;8.52;;;1.20;99.90;;;;;;5037716;28;20041;-69
2023/03/10 05:19:20;;;;;;;15.82;7.70;;;0.90;99.90;;;;;;5038599;28;20043;-69
2023/03/10 05:21:45;;;;;;;17.13;7.95;;;1.10;99.90;;;;;;5043653;28;20487;-67
2023/03/10 05:24:11;;;;;;;16.15;7.68;;;0.90;99.90;;;;;;5054769;28;20057;-68
2023/03/10 05:26:36;;;;;;;14.27;6.93;;;1.10;99.90;;;;;;5041369;28;20033;-69
2023/03/10 05:29:02;;;;;;;15.38;7.55;;;1.20;99.90;;;;;;5038037;28;20084;-69
2023/03/10 05:31:28;;;;;;;15.95;7.68;;;1.10;99.90;;;;;;5040213;28;20361;-68
2023/03/10 05:33:54;;;;;;;15.30;8.02;;;1.00;99.90;;;;;;5035884;28;20041;-69
2023/03/10 05:36:19;;;;;;;16.85;7.78;;;0.90;99.90;;;;;;5056730;28;20037;-68
2023/03/10 05:38:45;;;;;;;12.40;6.75;;;1.00;99.90;;;;;;5042827;28;20040;-68
2023/03/10 05:41:11;;;;;;;14.43;7.20;;;1.10;99.90;;;;;;5039710;28;20053;-68
2023/03/10 05:43:37;;;;;;;13.48;6.38;;;1.10;99.90;;;;;;5040409;28;20073;-71
2023/03/10 05:46:03;;;;;;;16.17;7.68;;;1.20;99.90;;;;;;5045832;28;20037;-70
2023/03/10 05:48:29;;;;;;;14.65;7.65;;;1.20;99.90;;;;;;5038995;28;20033;-71
2023/03/10 05:51:02;;;;;;;14.32;7.20;;;1.10;99.90;;;;;;5036815;28;20033;-70
2023/03/10 05:53:29;;;;;;;15.50;7.38;;;1.20;99.90;;;;;;5059564;28;20033;-70
2023/03/10 05:55:55;;;;;;;15.75;7.10;;;1.20;99.90;;;;;;5041420;28;20040;-69
2023/03/10 05:58:23;;;;;;;13.10;6.57;;;1.10;99.90;;;;;;5036986;28;20033;-70
2023/03/10 06:00:49;;;;;;;15.52;7.20;;;1.30;99.90;;;;;;5041626;28;20064;-72
2023/03/10 06:03:14;;;;;;;13.48;6.53;;;1.10;99.90;;;;;;5038065;28;20075;-71
2023/03/10 06:05:40;;;;;;;15.90;8.10;;;1.00;99.90;;;;;;5041104;28;20596;-70
2023/03/10 06:08:05;;;;;;;16.35;7.72;;;1.00;99.90;;;;;;5036278;28;20099;-69
2023/03/10 06:10:31;;;;;;;13.25;6.60;;;1.10;99.90;;;;;;5025004;28;20335;-68
2023/03/10 06:12:57;;;;;;;15.20;7.18;;;1.20;99.90;;;;;;5034983;28;20110;-70
2023/03/10 06:15:23;;;;;;;15.68;8.25;;;1.00;99.90;;;;;;5035145;28;20045;-68
2023/03/10 06:17:48;;;;;;;16.70;8.18;;;1.00;99.90;;;;;;5038650;28;20083;-68
2023/03/10 06:20:14;;;;;;;17.02;8.07;;;1.20;99.90;;;;;;5042718;28;20060;-68
2023/03/10 06:22:40;;;;;;;16.30;7.65;;;1.10;99.90;;;;;;5029760;28;20241;-70
2023/03/10 06:25:06;;;;;;;16.63;8.18;;;1.20;99.90;;;;;;5042178;28;20071;-68
2023/03/10 06:27:32;;;;;;;16.75;8.27;;;1.20;99.90;;;;;;5043077;28;20045;-71
2023/03/10 06:29:58;;;;;;;14.43;7.53;;;1.20;99.90;;;;;;5043836;28;20041;-69
2023/03/10 06:32:24;;;;;;;18.38;9.35;;;1.10;99.90;;;;;;5042883;28;20052;-70
2023/03/10 06:34:49;;;;;;;16.73;8.18;;;1.10;99.90;;;;;;5053334;28;20045;-70
2023/03/10 06:37:15;;;;;;;16.65;8.73;;;1.30;99.90;;;;;;5058190;28;20032;-70
2023/03/10 06:39:41;;;;;;;16.98;8.63;;;1.20;99.90;;;;;;5039006;28;20431;-69
2023/03/10 06:42:07;;;;;;;16.27;8.38;;;1.20;99.90;;;;;;5036086;28;20481;-70
2023/03/10 06:44:34;;;;;;;16.30;8.30;;;1.30;99.90;;;;;;5059110;28;20480;-66
2023/03/10 06:47:00;;;;;;;16.85;8.65;;;1.20;99.90;;;;;;5034544;28;20139;-68
2023/03/10 06:49:30;;;;;;;16.55;7.93;;;1.20;99.90;;;;;;5038010;28;20187;-70
2023/03/10 06:51:55;;;;;;;17.63;8.70;;;1.20;99.90;;;;;;5035962;28;20111;-67
2023/03/10 06:54:21;;;;;;;17.45;8.63;;;1.20;99.90;;;;;;5040717;28;20037;-67
2023/03/10 06:56:48;;;;;;;18.63;8.05;;;1.30;99.90;;;;;;5035039;28;20040;-68
2023/03/10 06:59:13;;;;;;;20.23;8.63;;;1.20;99.90;;;;;;5033588;28;20634;-70
2023/03/10 07:01:39;;;;;;;17.48;8.80;;;1.40;99.90;;;;;;5035920;28;20057;-72
2023/03/10 07:04:05;;;;;;;14.20;7.63;;;1.20;99.90;;;;;;5034934;28;20464;-71
2023/03/10 07:06:30;;;;;;;21.05;9.88;;;1.20;99.90;;;;;;5042125;28;20049;-69
2023/03/10 07:08:56;;;;;;;17.75;8.38;;;1.20;99.90;;;;;;5045147;28;20040;-69
2023/03/10 07:11:23;;;;;;;18.90;9.85;;;1.30;99.90;;;;;;5028613;28;20060;-70
2023/03/10 07:13:49;;;;;;;20.70;9.35;;;1.30;99.90;;;;;;5038979;28;20037;-71
2023/03/10 07:16:16;;;;;;;21.55;9.82;;;1.20;99.90;;;;;;5048019;28;20047;-69
2023/03/10 07:18:42;;;;;;;22.25;11.43;;;1.40;99.90;;;;;;5036052;28;20094;-69
2023/03/10 07:21:10;;;;;;;21.77;10.35;;;1.30;99.90;;;;;;5032284;28;20033;-69
2023/03/10 07:23:36;;;;;;;23.98;10.20;;;1.40;99.90;;;;;;5041063;28;20041;-71
2023/03/10 07:26:06;;;;;;;25.50;11.73;;;1.40;99.90;;;;;;5031547;28;20037;-70
2023/03/10 07:28:32;;;;;;;28.02;13.20;;;1.30;99.90;;;;;;5044145;28;20038;-71
2023/03/10 07:31:05;;;;;;;25.15;11.65;;;1.40;99.90;;;;;;5040318;28;20358;-68
2023/03/10 07:33:31;;;;;;;26.55;12.98;;;1.50;99.90;;;;;;5047933;28;20076;-71
2023/03/10 07:35:57;;;;;;;26.67;12.40;;;1.40;99.90;;;;;;5038437;28;20459;-71
2023/03/10 07:38:22;;;;;;;28.58;12.82;;;1.40;99.90;;;;;;5056127;28;20101;-70
2023/03/10 07:40:48;;;;;;;28.60;12.85;;;1.40;99.90;;;;;;5061447;28;20063;-70
2023/03/10 07:43:13;;;;;;;33.47;15.40;;;1.40;99.90;;;;;;5047018;28;20048;-71
2023/03/10 07:45:39;;;;;;;32.38;14.45;;;1.40;99.90;;;;;;5048893;28;20037;-72
2023/03/10 07:48:05;;;;;;;33.08;14.68;;;1.30;99.90;;;;;;5036773;28;20034;-70
2023/03/10 07:50:30;;;;;;;33.70;14.77;;;1.30;99.90;;;;;;5056783;28;20032;-71
2023/03/10 07:52:57;;;;;;;33.72;15.38;;;1.30;99.90;;;;;;5031602;28;20227;-72
2023/03/10 07:55:22;;;;;;;33.95;15.77;;;1.50;99.90;;;;;;5036835;28;20128;-70
2023/03/10 07:57:48;;;;;;;33.05;14.32;;;1.50;99.90;;;;;;5042796;28;20567;-73
2023/03/10 08:00:14;;;;;;;29.10;13.57;;;1.50;99.90;;;;;;5032429;28;20128;-74
2023/03/10 08:02:40;;;;;;;34.00;14.85;;;1.40;99.90;;;;;;5045106;28;20159;-72
2023/03/10 08:05:07;;;;;;;35.50;15.73;;;1.40;99.90;;;;;;5044765;28;20120;-70
2023/03/10 08:07:33;;;;;;;35.65;15.20;;;1.60;99.90;;;;;;5026895;28;20076;-71
2023/03/10 08:09:58;;;;;;;34.50;14.85;;;1.60;99.90;;;;;;5028531;28;20037;-72
2023/03/10 08:12:24;;;;;;;34.90;15.20;;;1.60;99.90;;;;;;5040295;28;20128;-71
2023/03/10 08:14:50;;;;;;;31.42;13.98;;;1.50;99.90;;;;;;5032073;28;20045;-73
2023/03/10 08:17:16;;;;;;;31.20;14.30;;;1.40;99.90;;;;;;5034719;28;20041;-70
2023/03/10 08:19:42;;;;;;;26.10;12.63;;;1.50;99.90;;;;;;5046836;28;20128;-74
2023/03/10 08:22:09;;;;;;;30.08;13.77;;;1.40;99.90;;;;;;5041760;28;20128;-72
2023/03/10 08:24:36;;;;;;;33.40;14.57;;;1.60;99.90;;;;;;5030192;28;20067;-72
2023/03/10 08:27:02;;;;;;;29.80;13.40;;;1.60;99.90;;;;;;5044522;28;20044;-70
2023/03/10 08:29:27;;;;;;;29.92;13.40;;;1.60;99.90;;;;;;5028894;28;20049;-69
2023/03/10 08:31:53;;;;;;;31.13;15.07;;;1.60;99.90;;;;;;5034297;28;20033;-69
2023/03/10 08:34:18;;;;;;;31.63;13.95;;;1.50;99.90;;;;;;5045295;28;20095;-70
2023/03/10 08:36:44;;;;;;;31.00;14.65;;;1.60;99.90;;;;;;5063999;28;20043;-72
2023/03/10 08:39:11;;;;;;;29.73;13.73;;;1.60;99.90;;;;;;5041918;28;20116;-69
2023/03/10 08:41:41;;;;;;;32.60;14.20;;;1.50;99.90;;;;;;5041804;28;20518;-71
2023/03/10 08:44:07;;;;;;;30.02;14.18;;;1.70;99.90;;;;;;5049411;28;20116;-71
2023/03/10 08:46:33;;;;;;;27.52;13.43;;;1.70;99.90;;;;;;5049198;28;20075;-70
2023/03/10 08:48:59;;;;;;;29.85;14.48;;;1.70;99.90;;;;;;5047397;28;20053;-70
2023/03/10 08:51:26;;;;;;;26.35;12.73;;;1.60;99.90;;;;;;5053462;28;20045;-70
2023/03/10 08:53:52;;;;;;;30.95;13.60;;;1.80;99.90;;;;;;5049953;28;20059;-72
2023/03/10 08:56:20;;;;;;;25.38;11.77;;;1.80;99.90;;;;;;5044441;28;20049;-71
2023/03/10 08:58:46;;;;;;;26.70;12.65;;;1.80;99.90;;;;;;5039710;28;20072;-72
2023/03/10 09:01:14;;;;;;;27.88;13.85;;;1.70;99.90;;;;;;5044482;28;20448;-71
2023/03/10 09:03:41;;;;;;;26.20;12.70;;;1.70;99.90;;;;;;5022617;28;20046;-70
2023/03/10 09:06:07;;;;;;;27.92;13.30;;;1.70;99.90;;;;;;5046290;28;20048;-72
2023/03/10 09:08:33;;;;;;;28.75;13.50;;;1.70;99.90;;;;;;5044011;28;20036;-71
2023/03/10 09:11:00;;;;;;;25.30;12.23;;;1.70;99.90;;;;;;5035561;28;20048;-73
2023/03/10 09:13:26;;;;;;;24.90;12.00;;;1.70;99.90;;;;;;5040617;28;20034;-71
2023/03/10 09:15:51;;;;;;;26.63;13.32;;;1.70;99.90;;;;;;5032810;28;20041;-73
2023/03/10 09:18:18;;;;;;;27.08;13.40;;;1.60;99.90;;;;;;5040355;28;20036;-70
2023/03/10 09:20:44;;;;;;;27.58;14.15;;;1.70;99.90;;;;;;5038530;28;20076;-71
2023/03/10 09:23:15;;;;;;;25.73;12.90;;;1.70;99.90;;;;;;5040457;28;20038;-73
2023/03/10 09:25:41;;;;;;;26.33;13.65;;;1.60;99.90;;;;;;5045621;28;20120;-68
2023/03/10 09:28:08;;;;;;;26.48;12.13;;;1.70;99.90;;;;;;5046498;28;20121;-71
2023/03/10 09:30:38;;;;;;;26.25;12.60;;;1.70;99.90;;;;;;5032461;28;20048;-70
2023/03/10 09:33:06;;;;;;;26.02;12.90;;;1.70;99.90;;;;;;5041485;28;20041;-69
2023/03/10 09:35:32;;;;;;;27.75;12.63;;;1.70;99.90;;;;;;5044997;28;20049;-73
2023/03/10 09:37:57;;;;;;;27.25;13.10;;;1.70;99.90;;;;;;5038633;28;20465;-72
2023/03/10 09:40:24;;;;;;;26.27;13.27;;;1.80;99.90;;;;;;5050571;28;20080;-71
2023/03/10 09:43:00;;;;;;;26.88;13.68;;;1.80;99.90;;;;;;5054541;28;20084;-70
2023/03/10 09:45:48;;;;;;;25.20;13.18;;;1.80;99.90;;;;;;5038886;28;20040;-69
2023/03/10 09:48:30;;;;;;;27.63;12.68;;;1.90;99.90;;;;;;5046633;28;20060;-72
2023/03/10 09:50:58;;;;;;;29.23;13.15;;;1.90;99.90;;;;;;5044049;28;20040;-68
2023/03/10 09:53:40;;;;;;;28.67;13.32;;;1.80;99.90;;;;;;5042830;28;20049;-71
2023/03/10 09:56:12;;;;;;;28.33;13.18;;;1.80;99.90;;;;;;5047854;28;20041;-70
2023/03/10 09:58:51;;;;;;;27.67;14.15;;;1.90;99.90;;;;;;5041697;28;20049;-68
2023/03/10 10:01:24;;;;;;;29.60;13.65;;;1.70;99.90;;;;;;5039695;28;20104;-70
2023/03/10 10:04:10;;;;;;;28.17;14.60;;;1.80;99.90;;;;;;5043307;28;20090;-68
2023/03/10 10:06:39;;;;;;;26.00;12.25;;;1.80;99.90;;;;;;5047797;28;20399;-69
2023/03/10 10:09:12;;;;;;;29.10;14.45;;;1.70;99.90;;;;;;5043931;28;20037;-69
2023/03/10 10:11:38;;;;;;;26.27;13.35;;;1.80;99.90;;;;;;5041153;28;20480;-69
2023/03/10 10:14:20;;;;;;;27.45;13.77;;;1.80;99.90;;;;;;5035387;28;20033;-70
2023/03/10 10:17:15;;;;;;;29.90;15.32;;;1.70;99.90;;;;;;5037055;28;20044;-68
2023/03/10 10:19:42;;;;;;;30.60;14.02;;;1.70;99.90;;;;;;5049887;28;20395;-68
2023/03/10 10:22:25;;;;;;;30.05;15.10;;;1.70;99.90;;;;;;5040697;28;20052;-69
2023/03/10 10:25:14;;;;;;;29.45;13.68;;;1.60;99.90;;;;;;5045348;28;20068;-71
2023/03/10 10:27:44;;;;;;;25.60;12.00;;;1.70;99.90;;;;;;5039375;28;20041;-69
2023/03/10 10:30:31;;;;;;;28.48;13.30;;;1.70;99.90;;;;;;5035358;28;20106;-69
2023/03/10 10:33:08;;;;;;;28.83;14.30;;;1.70;99.90;;;;;;5038512;28;20037;-69
2023/03/10 10:35:38;;;;;;;26.23;13.52;;;1.80;99.90;;;;;;5040688;28;20048;-69
2023/03/10 10:38:10;;;;;;;27.90;13.48;;;1.70;99.90;;;;;;5046927;28;20037;-71
2023/03/10 10:41:03;;;;;;;28.80;13.90;;;1.70;99.90;;;;;;5039695;28;20033;-69
2023/03/10 10:43:29;;;;;;;30.63;14.07;;;1.80;99.90;;;;;;5045178;28;20072;-68
2023/03/10 10:46:03;;;;;;;31.00;14.13;;;1.70;99.90;;;;;;5043889;28;20033;-71
2023/03/10 10:48:35;;;;;;;27.73;12.88;;;1.70;99.90;;;;;;5036247;28;20131;-72
2023/03/10 10:51:01;;;;;;;;;;;1.80;99.90;;;;;;5042745;28;20098;-68
2023/03/10 10:53:33;;;;;;;26.83;12.52;;;1.80;99.90;;;;;;5042381;28;19924;-71
2023/03/10 10:56:11;;;;;;;27.23;12.53;;;1.70;99.90;;;;;;5039241;28;20512;-68
2023/03/10 10:58:38;;;;;;;23.83;12.10;;;1.70;99.90;;;;;;5052501;28;20045;-69
2023/03/10 11:01:07;;;;;;;27.27;13.18;;;1.80;99.90;;;;;;5058719;28;20515;-69
2023/03/10 11:03:36;;;;;;;22.88;10.75;;;1.80;99.90;;;;;;5044786;28;20037;-70
2023/03/10 11:06:28;;;;;;;28.90;14.98;;;1.70;99.90;;;;;;5036853;28;20123;-69
2023/03/10 11:09:20;;;;;;;30.15;15.57;;;1.80;99.90;;;;;;5038241;28;20068;-69
2023/03/10 11:11:59;;;;;;;33.30;15.23;;;1.70;99.90;;;;;;5038302;28;20048;-68
2023/03/10 11:14:30;;;;;;;28.48;13.38;;;1.70;99.90;;;;;;5042041;28;20543;-67
2023/03/10 11:17:07;;;;;;;31.67;14.40;;;1.80;99.90;;;;;;5040982;28;20060;-69
2023/03/10 11:19:56;;;;;;;26.92;13.05;;;1.60;99.90;;;;;;5037829;28;20076;-68
2023/03/10 11:22:37;;;;;;;30.40;14.05;;;1.80;99.90;;;;;;5036946;28;20131;-68
2023/03/10 11:25:33;;;;;;;29.30;13.30;;;1.60;99.90;;;;;;5037712;28;20037;-69
2023/03/10 11:28:17;;;;;;;28.63;13.43;;;1.60;99.90;;;;;;5042884;28;20067;-69
2023/03/10 11:31:25;;;;;;;27.85;13.35;;;1.70;99.90;;;;;;5052498;28;20041;-68
2023/03/10 11:34:16;;;;;;;29.52;13.48;;;1.80;99.90;;;;;;5056877;28;20037;-69
2023/03/10 11:37:04;;;;;;;29.48;13.85;;;1.60;99.90;;;;;;5039702;28;20084;-71
2023/03/10 11:40:06;;;;;;;28.02;13.10;;;1.90;99.90;;;;;;5037090;28;20144;-70
2023/03/10 11:42:47;;;;;;;26.77;12.65;;;1.70;99.90;;;;;;5040039;28;20459;-70
2023/03/10 11:45:45;;;;;;;28.35;13.05;;;1.90;99.90;;;;;;5035459;28;20033;-70
2023/03/10 11:48:25;;;;;;;25.92;12.48;;;1.80;99.90;;;;;;5036542;28;20154;-67
2023/03/10 11:50:59;;;;;;;29.95;13.70;;;1.90;99.90;;;;;;5035915;28;20037;-71
2023/03/10 11:53:52;;;;;;;29.30;13.75;;;2.00;99.90;;;;;;5038373;28;20037;-70
2023/03/10 11:56:23;;;;;;;26.40;13.80;;;1.80;99.90;;;;;;5044507;28;20045;-69
2023/03/10 11:59:05;;;;;;;25.30;12.63;;;1.90;99.90;;;;;;5051600;28;20041;-68
2023/03/10 12:01:53;;;;;;;26.48;12.18;;;1.90;99.90;;;;;;5044951;28;20044;-69
2023/03/10 12:04:42;;;;;;;27.08;12.82;;;1.90;99.90;;;;;;5053453;28;20068;-70
2023/03/10 12:07:45;;;;;;;29.60;12.90;;;1.80;99.90;;;;;;5025194;28;20076;-70
2023/03/10 12:10:10;;;;;;;26.80;12.45;;;2.00;99.90;;;;;;5036899;28;20045;-70
2023/03/10 12:12:38;;;;;;;24.55;11.88;;;1.90;99.90;;;;;;5035005;28;20037;-69
2023/03/10 12:15:32;;;;;;;26.95;12.63;;;2.00;99.90;;;;;;5047642;28;20036;-69
2023/03/10 12:17:58;;;;;;;26.25;12.13;;;2.00;99.90;;;;;;5045920;28;20029;-68
2023/03/10 12:20:29;;;;;;;21.75;10.10;;;1.90;99.90;;;;;;5045616;28;20091;-69
2023/03/10 12:23:19;;;;;;;20.98;9.57;;;2.10;99.90;;;;;;5049166;28;20162;-69
2023/03/10 12:25:45;;;;;;;24.23;12.35;;;2.10;99.90;;;;;;5045948;28;20436;-69
2023/03/10 12:28:14;;;;;;;16.25;7.78;;;2.10;99.90;;;;;;5032933;28;20037;-68
2023/03/10 12:30:52;;;;;;;24.70;11.23;;;2.10;99.90;;;;;;5040993;28;20040;-68
2023/03/10 12:33:42;;;;;;;23.92;11.75;;;2.20;99.90;;;;;;5050730;28;20127;-69
2023/03/10 12:36:11;;;;;;;24.35;11.85;;;2.10;99.90;;;;;;5048050;28;20492;-69
2023/03/10 12:38:53;;;;;;;23.08;10.95;;;2.00;99.90;;;;;;5043132;28;20041;-70
2023/03/10 12:41:25;;;;;;;21.63;10.13;;;2.00;99.90;;;;;;5044476;28;20036;-68
2023/03/10 12:44:22;;;;;;;19.35;7.65;;;2.00;99.90;;;;;;5041898;28;20045;-69
2023/03/10 12:47:08;;;;;;;24.15;11.02;;;1.90;99.90;;;;;;5050573;28;20389;-68
2023/03/10 12:49:40;;;;;;;18.27;9.10;;;2.00;99.90;;;;;;5050320;28;20056;-69
2023/03/10 12:52:05;;;;;;;20.33;8.73;;;1.90;99.90;;;;;;5051306;28;20621;-68
2023/03/10 12:54:43;;;;;;;23.00;11.05;;;1.90;99.90;;;;;;5039121;28;20071;-67